sensor_id;sensor_type;location;lat;lon;timestamp;P1;durP1;ratioP1;P2;durP2;ratioP2
21142;SDS011;66437;46.908;15.216;2022-12-28T00:01:18;5.07;;;4.57;;
21142;SDS011;66437;46.908;15.216;2022-12-28T00:03:45;7.57;;;5.43;;
21142;SDS011;66437;46.908;15.216;2022-12-28T00:06:11;5.20;;;4.50;;
21142;SDS011;66437;46.908;15.216;2022-12-28T00:08:38;7.30;;;5.20;;
21142;SDS011;66437;46.908;15.216;2022-12-28T00:11:05;5.93;;;5.33;;
21142;SDS011;66437;46.908;15.216;2022-12-28T00:13:32;6.07;;;5.50;;
21142;SDS011;66437;46.908;15.216;2022-12-28T00:18:55;5.70;;;4.80;;
21142;SDS011;66437;46.908;15.216;2022-12-28T00:21:22;5.70;;;5.13;;
21142;SDS011;66437;46.908;15.216;2022-12-28T00:23:49;5.97;;;5.47;;
21142;SDS011;66437;46.908;15.216;2022-12-28T00:26:17;6.70;;;5.73;;
21142;SDS011;66437;46.908;15.216;2022-12-28T00:28:44;5.80;;;5.30;;
21142;SDS011;66437;46.908;15.216;2022-12-28T00:31:10;5.50;;;5.00;;
21142;SDS011;66437;46.908;15.216;2022-12-28T00:33:36;7.90;;;5.00;;
21142;SDS011;66437;46.908;15.216;2022-12-28T00:36:02;5.07;;;4.57;;
21142;SDS011;66437;46.908;15.216;2022-12-28T00:38:29;5.30;;;4.77;;
21142;SDS011;66437;46.908;15.216;2022-12-28T00:40:56;5.70;;;4.67;;
21142;SDS011;66437;46.908;15.216;2022-12-28T00:43:22;5.47;;;4.90;;
21142;SDS011;66437;46.908;15.216;2022-12-28T00:45:48;5.00;;;4.50;;
21142;SDS011;66437;46.908;15.216;2022-12-28T00:48:14;5.50;;;5.00;;
21142;SDS011;66437;46.908;15.216;2022-12-28T00:50:41;4.50;;;4.10;;
21142;SDS011;66437;46.908;15.216;2022-12-28T00:53:08;4.63;;;4.23;;
21142;SDS011;66437;46.908;15.216;2022-12-28T00:55:35;4.53;;;4.10;;
21142;SDS011;66437;46.908;15.216;2022-12-28T00:58:01;4.27;;;3.87;;
21142;SDS011;66437;46.908;15.216;2022-12-28T01:00:29;4.83;;;4.33;;
21142;SDS011;66437;46.908;15.216;2022-12-28T01:02:55;5.37;;;4.87;;
21142;SDS011;66437;46.908;15.216;2022-12-28T01:05:22;6.70;;;5.50;;
21142;SDS011;66437;46.908;15.216;2022-12-28T01:07:48;5.00;;;4.50;;
21142;SDS011;66437;46.908;15.216;2022-12-28T01:10:15;5.40;;;4.83;;
21142;SDS011;66437;46.908;15.216;2022-12-28T01:12:41;5.63;;;4.63;;
21142;SDS011;66437;46.908;15.216;2022-12-28T01:15:08;5.67;;;5.00;;
21142;SDS011;66437;46.908;15.216;2022-12-28T01:17:35;4.87;;;4.50;;
21142;SDS011;66437;46.908;15.216;2022-12-28T01:20:01;5.60;;;4.67;;
21142;SDS011;66437;46.908;15.216;2022-12-28T01:22:27;6.47;;;5.27;;
21142;SDS011;66437;46.908;15.216;2022-12-28T01:24:53;5.23;;;4.60;;
21142;SDS011;66437;46.908;15.216;2022-12-28T01:27:19;5.10;;;4.50;;
21142;SDS011;66437;46.908;15.216;2022-12-28T01:29:45;6.10;;;5.50;;
21142;SDS011;66437;46.908;15.216;2022-12-28T01:32:11;5.20;;;4.70;;
21142;SDS011;66437;46.908;15.216;2022-12-28T01:34:37;5.60;;;5.10;;
21142;SDS011;66437;46.908;15.216;2022-12-28T01:37:04;6.00;;;4.53;;
21142;SDS011;66437;46.908;15.216;2022-12-28T01:39:30;5.57;;;4.87;;
21142;SDS011;66437;46.908;15.216;2022-12-28T01:41:56;7.03;;;6.33;;
21142;SDS011;66437;46.908;15.216;2022-12-28T01:46:50;5.30;;;4.90;;
21142;SDS011;66437;46.908;15.216;2022-12-28T01:54:52;4.90;;;4.40;;
21142;SDS011;66437;46.908;15.216;2022-12-28T01:57:20;6.13;;;4.63;;
21142;SDS011;66437;46.908;15.216;2022-12-28T01:59:51;4.50;;;4.10;;
21142;SDS011;66437;46.908;15.216;2022-12-28T02:02:19;5.63;;;4.67;;
21142;SDS011;66437;46.908;15.216;2022-12-28T02:04:46;4.90;;;4.50;;
21142;SDS011;66437;46.908;15.216;2022-12-28T02:07:13;5.27;;;4.83;;
21142;SDS011;66437;46.908;15.216;2022-12-28T02:09:41;5.43;;;4.80;;
21142;SDS011;66437;46.908;15.216;2022-12-28T02:12:10;5.20;;;4.70;;
21142;SDS011;66437;46.908;15.216;2022-12-28T02:14:38;5.20;;;4.70;;
21142;SDS011;66437;46.908;15.216;2022-12-28T02:17:06;6.03;;;5.53;;
21142;SDS011;66437;46.908;15.216;2022-12-28T02:19:51;4.97;;;4.50;;
21142;SDS011;66437;46.908;15.216;2022-12-28T02:23:06;6.10;;;5.13;;
21142;SDS011;66437;46.908;15.216;2022-12-28T02:37:47;5.40;;;4.90;;
21142;SDS011;66437;46.908;15.216;2022-12-28T02:40:20;4.90;;;4.40;;
21142;SDS011;66437;46.908;15.216;2022-12-28T02:42:49;7.20;;;5.30;;
21142;SDS011;66437;46.908;15.216;2022-12-28T02:48:15;7.07;;;5.33;;
21142;SDS011;66437;46.908;15.216;2022-12-28T02:51:07;6.03;;;5.43;;
21142;SDS011;66437;46.908;15.216;2022-12-28T02:53:43;5.63;;;4.50;;
21142;SDS011;66437;46.908;15.216;2022-12-28T02:58:53;6.17;;;5.57;;
21142;SDS011;66437;46.908;15.216;2022-12-28T03:14:27;4.50;;;3.90;;
21142;SDS011;66437;46.908;15.216;2022-12-28T03:16:58;4.90;;;3.93;;
21142;SDS011;66437;46.908;15.216;2022-12-28T03:19:49;5.00;;;4.40;;
21142;SDS011;66437;46.908;15.216;2022-12-28T03:22:35;4.53;;;3.73;;
21142;SDS011;66437;46.908;15.216;2022-12-28T03:25:22;6.60;;;4.53;;
21142;SDS011;66437;46.908;15.216;2022-12-28T03:28:09;5.40;;;4.90;;
21142;SDS011;66437;46.908;15.216;2022-12-28T03:30:59;4.73;;;3.83;;
21142;SDS011;66437;46.908;15.216;2022-12-28T03:33:29;4.63;;;4.23;;
21142;SDS011;66437;46.908;15.216;2022-12-28T03:41:07;4.80;;;4.40;;
21142;SDS011;66437;46.908;15.216;2022-12-28T03:43:37;4.60;;;3.93;;
21142;SDS011;66437;46.908;15.216;2022-12-28T03:46:08;4.70;;;4.20;;
21142;SDS011;66437;46.908;15.216;2022-12-28T03:48:36;5.30;;;4.80;;
21142;SDS011;66437;46.908;15.216;2022-12-28T03:51:02;6.80;;;5.00;;
21142;SDS011;66437;46.908;15.216;2022-12-28T03:53:33;5.20;;;4.23;;
21142;SDS011;66437;46.908;15.216;2022-12-28T03:56:05;4.60;;;4.20;;
21142;SDS011;66437;46.908;15.216;2022-12-28T03:58:32;5.20;;;4.70;;
21142;SDS011;66437;46.908;15.216;2022-12-28T04:00:58;5.70;;;5.10;;
21142;SDS011;66437;46.908;15.216;2022-12-28T04:03:24;7.80;;;7.00;;
21142;SDS011;66437;46.908;15.216;2022-12-28T04:05:50;5.83;;;4.00;;
21142;SDS011;66437;46.908;15.216;2022-12-28T04:08:16;5.67;;;5.00;;
21142;SDS011;66437;46.908;15.216;2022-12-28T04:10:42;5.67;;;4.30;;
21142;SDS011;66437;46.908;15.216;2022-12-28T04:13:08;5.67;;;5.20;;
21142;SDS011;66437;46.908;15.216;2022-12-28T04:15:34;4.00;;;3.60;;
21142;SDS011;66437;46.908;15.216;2022-12-28T04:18:01;4.87;;;4.30;;
21142;SDS011;66437;46.908;15.216;2022-12-28T04:20:27;5.67;;;5.07;;
21142;SDS011;66437;46.908;15.216;2022-12-28T04:22:53;5.57;;;5.03;;
21142;SDS011;66437;46.908;15.216;2022-12-28T04:25:19;4.83;;;4.43;;
21142;SDS011;66437;46.908;15.216;2022-12-28T04:27:45;5.00;;;4.50;;
21142;SDS011;66437;46.908;15.216;2022-12-28T04:30:11;6.97;;;4.20;;
21142;SDS011;66437;46.908;15.216;2022-12-28T04:32:37;10.57;;;5.80;;
21142;SDS011;66437;46.908;15.216;2022-12-28T04:35:03;4.80;;;4.30;;
21142;SDS011;66437;46.908;15.216;2022-12-28T04:37:29;7.17;;;5.30;;
21142;SDS011;66437;46.908;15.216;2022-12-28T04:39:56;5.77;;;5.27;;
21142;SDS011;66437;46.908;15.216;2022-12-28T04:42:22;6.27;;;5.00;;
21142;SDS011;66437;46.908;15.216;2022-12-28T04:44:48;5.70;;;5.10;;
21142;SDS011;66437;46.908;15.216;2022-12-28T04:47:14;5.67;;;4.80;;
21142;SDS011;66437;46.908;15.216;2022-12-28T04:49:40;5.37;;;4.77;;
21142;SDS011;66437;46.908;15.216;2022-12-28T04:52:06;4.77;;;4.33;;
21142;SDS011;66437;46.908;15.216;2022-12-28T04:54:32;5.47;;;4.97;;
21142;SDS011;66437;46.908;15.216;2022-12-28T04:56:58;5.13;;;4.73;;
21142;SDS011;66437;46.908;15.216;2022-12-28T04:59:24;6.47;;;5.37;;
21142;SDS011;66437;46.908;15.216;2022-12-28T05:01:50;5.20;;;4.70;;
21142;SDS011;66437;46.908;15.216;2022-12-28T05:04:17;7.43;;;4.80;;
21142;SDS011;66437;46.908;15.216;2022-12-28T05:06:43;5.53;;;5.03;;
21142;SDS011;66437;46.908;15.216;2022-12-28T05:09:09;7.37;;;5.00;;
21142;SDS011;66437;46.908;15.216;2022-12-28T05:11:35;7.80;;;5.17;;
21142;SDS011;66437;46.908;15.216;2022-12-28T05:14:01;5.10;;;4.60;;
21142;SDS011;66437;46.908;15.216;2022-12-28T05:16:27;6.40;;;5.70;;
21142;SDS011;66437;46.908;15.216;2022-12-28T05:18:54;4.80;;;4.30;;
21142;SDS011;66437;46.908;15.216;2022-12-28T05:21:22;5.40;;;4.90;;
21142;SDS011;66437;46.908;15.216;2022-12-28T05:23:49;4.73;;;4.33;;
21142;SDS011;66437;46.908;15.216;2022-12-28T05:26:16;5.57;;;5.00;;
21142;SDS011;66437;46.908;15.216;2022-12-28T05:28:43;4.53;;;4.13;;
21142;SDS011;66437;46.908;15.216;2022-12-28T05:31:10;6.40;;;5.70;;
21142;SDS011;66437;46.908;15.216;2022-12-28T05:33:37;11.63;;;8.20;;
21142;SDS011;66437;46.908;15.216;2022-12-28T05:36:05;10.77;;;8.83;;
21142;SDS011;66437;46.908;15.216;2022-12-28T05:38:31;7.40;;;6.17;;
21142;SDS011;66437;46.908;15.216;2022-12-28T05:41:14;7.33;;;6.57;;
21142;SDS011;66437;46.908;15.216;2022-12-28T05:43:40;10.23;;;9.23;;
21142;SDS011;66437;46.908;15.216;2022-12-28T05:46:08;9.53;;;6.57;;
21142;SDS011;66437;46.908;15.216;2022-12-28T05:48:35;6.13;;;5.53;;
21142;SDS011;66437;46.908;15.216;2022-12-28T05:51:02;5.37;;;4.87;;
21142;SDS011;66437;46.908;15.216;2022-12-28T05:53:30;5.30;;;4.80;;
21142;SDS011;66437;46.908;15.216;2022-12-28T05:56:15;5.57;;;5.07;;
21142;SDS011;66437;46.908;15.216;2022-12-28T05:58:42;5.90;;;5.10;;
21142;SDS011;66437;46.908;15.216;2022-12-28T06:03:34;7.20;;;4.97;;
21142;SDS011;66437;46.908;15.216;2022-12-28T06:06:01;5.77;;;4.30;;
21142;SDS011;66437;46.908;15.216;2022-12-28T06:08:28;5.67;;;4.53;;
21142;SDS011;66437;46.908;15.216;2022-12-28T06:10:57;6.90;;;4.27;;
21142;SDS011;66437;46.908;15.216;2022-12-28T06:13:23;5.87;;;4.70;;
21142;SDS011;66437;46.908;15.216;2022-12-28T06:15:50;5.70;;;4.67;;
21142;SDS011;66437;46.908;15.216;2022-12-28T06:18:16;5.03;;;4.50;;
21142;SDS011;66437;46.908;15.216;2022-12-28T06:20:42;4.77;;;4.37;;
21142;SDS011;66437;46.908;15.216;2022-12-28T06:23:08;6.87;;;5.20;;
21142;SDS011;66437;46.908;15.216;2022-12-28T06:25:35;5.03;;;4.43;;
21142;SDS011;66437;46.908;15.216;2022-12-28T06:28:02;6.40;;;4.43;;
21142;SDS011;66437;46.908;15.216;2022-12-28T06:30:28;5.77;;;4.73;;
21142;SDS011;66437;46.908;15.216;2022-12-28T06:32:55;5.17;;;4.60;;
21142;SDS011;66437;46.908;15.216;2022-12-28T06:35:21;5.03;;;4.40;;
21142;SDS011;66437;46.908;15.216;2022-12-28T06:37:48;5.47;;;4.90;;
21142;SDS011;66437;46.908;15.216;2022-12-28T06:40:14;5.57;;;5.00;;
21142;SDS011;66437;46.908;15.216;2022-12-28T06:42:42;6.30;;;5.70;;
21142;SDS011;66437;46.908;15.216;2022-12-28T06:45:08;5.43;;;4.87;;
21142;SDS011;66437;46.908;15.216;2022-12-28T06:47:34;4.90;;;4.40;;
21142;SDS011;66437;46.908;15.216;2022-12-28T06:50:02;5.40;;;4.73;;
21142;SDS011;66437;46.908;15.216;2022-12-28T06:52:28;6.47;;;4.50;;
21142;SDS011;66437;46.908;15.216;2022-12-28T06:54:54;4.50;;;4.13;;
21142;SDS011;66437;46.908;15.216;2022-12-28T06:57:20;4.87;;;4.37;;
21142;SDS011;66437;46.908;15.216;2022-12-28T06:59:46;57.27;;;34.70;;
21142;SDS011;66437;46.908;15.216;2022-12-28T07:02:12;188.73;;;134.50;;
21142;SDS011;66437;46.908;15.216;2022-12-28T07:04:38;106.90;;;87.73;;
21142;SDS011;66437;46.908;15.216;2022-12-28T07:07:04;31.73;;;28.77;;
21142;SDS011;66437;46.908;15.216;2022-12-28T07:09:33;31.80;;;28.80;;
21142;SDS011;66437;46.908;15.216;2022-12-28T07:11:59;31.07;;;27.97;;
21142;SDS011;66437;46.908;15.216;2022-12-28T07:14:25;20.13;;;18.43;;
21142;SDS011;66437;46.908;15.216;2022-12-28T07:16:51;44.20;;;39.47;;
21142;SDS011;66437;46.908;15.216;2022-12-28T07:19:17;17.53;;;15.83;;
21142;SDS011;66437;46.908;15.216;2022-12-28T07:21:44;8.43;;;7.50;;
21142;SDS011;66437;46.908;15.216;2022-12-28T07:24:10;5.43;;;5.00;;
21142;SDS011;66437;46.908;15.216;2022-12-28T07:26:36;20.63;;;18.83;;
21142;SDS011;66437;46.908;15.216;2022-12-28T07:29:03;16.10;;;14.73;;
21142;SDS011;66437;46.908;15.216;2022-12-28T07:31:31;11.33;;;10.43;;
21142;SDS011;66437;46.908;15.216;2022-12-28T07:33:58;9.07;;;8.03;;
21142;SDS011;66437;46.908;15.216;2022-12-28T07:36:26;31.60;;;27.40;;
21142;SDS011;66437;46.908;15.216;2022-12-28T07:38:53;23.40;;;21.10;;
21142;SDS011;66437;46.908;15.216;2022-12-28T07:41:20;17.73;;;16.13;;
21142;SDS011;66437;46.908;15.216;2022-12-28T07:43:46;26.73;;;24.23;;
21142;SDS011;66437;46.908;15.216;2022-12-28T07:46:14;26.97;;;24.47;;
21142;SDS011;66437;46.908;15.216;2022-12-28T07:48:41;14.90;;;13.47;;
21142;SDS011;66437;46.908;15.216;2022-12-28T07:51:14;12.20;;;10.87;;
21142;SDS011;66437;46.908;15.216;2022-12-28T07:53:43;10.87;;;9.83;;
21142;SDS011;66437;46.908;15.216;2022-12-28T07:56:10;11.90;;;10.70;;
21142;SDS011;66437;46.908;15.216;2022-12-28T07:58:36;9.77;;;8.90;;
21142;SDS011;66437;46.908;15.216;2022-12-28T08:01:04;9.67;;;8.80;;
21142;SDS011;66437;46.908;15.216;2022-12-28T08:03:30;12.20;;;11.10;;
21142;SDS011;66437;46.908;15.216;2022-12-28T08:06:03;101.53;;;73.33;;
21142;SDS011;66437;46.908;15.216;2022-12-28T08:08:32;21.57;;;16.30;;
21142;SDS011;66437;46.908;15.216;2022-12-28T08:11:02;148.97;;;100.80;;
21142;SDS011;66437;46.908;15.216;2022-12-28T08:13:33;225.40;;;136.60;;
21142;SDS011;66437;46.908;15.216;2022-12-28T08:16:00;266.50;;;157.60;;
21142;SDS011;66437;46.908;15.216;2022-12-28T08:18:27;128.60;;;79.67;;
21142;SDS011;66437;46.908;15.216;2022-12-28T08:21:01;28.63;;;18.20;;
21142;SDS011;66437;46.908;15.216;2022-12-28T08:23:30;127.70;;;95.43;;
21142;SDS011;66437;46.908;15.216;2022-12-28T08:26:03;153.77;;;110.40;;
21142;SDS011;66437;46.908;15.216;2022-12-28T08:28:29;14.80;;;11.03;;
21142;SDS011;66437;46.908;15.216;2022-12-28T08:30:56;4.70;;;4.13;;
21142;SDS011;66437;46.908;15.216;2022-12-28T08:33:22;15.73;;;12.73;;
21142;SDS011;66437;46.908;15.216;2022-12-28T08:35:48;7.40;;;6.67;;
21142;SDS011;66437;46.908;15.216;2022-12-28T08:38:14;4.60;;;4.10;;
21142;SDS011;66437;46.908;15.216;2022-12-28T08:40:40;5.10;;;4.60;;
21142;SDS011;66437;46.908;15.216;2022-12-28T08:43:06;5.30;;;4.80;;
21142;SDS011;66437;46.908;15.216;2022-12-28T08:45:32;5.27;;;4.77;;
21142;SDS011;66437;46.908;15.216;2022-12-28T08:47:58;6.27;;;5.67;;
21142;SDS011;66437;46.908;15.216;2022-12-28T08:50:24;13.20;;;11.80;;
21142;SDS011;66437;46.908;15.216;2022-12-28T08:52:51;6.33;;;5.73;;
21142;SDS011;66437;46.908;15.216;2022-12-28T08:55:17;6.60;;;5.10;;
21142;SDS011;66437;46.908;15.216;2022-12-28T08:57:43;8.43;;;7.57;;
21142;SDS011;66437;46.908;15.216;2022-12-28T09:00:09;9.40;;;8.50;;
21142;SDS011;66437;46.908;15.216;2022-12-28T09:02:35;11.07;;;9.97;;
21142;SDS011;66437;46.908;15.216;2022-12-28T09:05:01;11.57;;;10.30;;
21142;SDS011;66437;46.908;15.216;2022-12-28T09:07:27;11.67;;;9.90;;
21142;SDS011;66437;46.908;15.216;2022-12-28T09:09:53;14.37;;;10.93;;
21142;SDS011;66437;46.908;15.216;2022-12-28T09:12:20;11.97;;;10.33;;
21142;SDS011;66437;46.908;15.216;2022-12-28T09:14:46;18.67;;;16.77;;
21142;SDS011;66437;46.908;15.216;2022-12-28T09:17:12;11.90;;;10.40;;
21142;SDS011;66437;46.908;15.216;2022-12-28T09:19:38;11.43;;;10.20;;
21142;SDS011;66437;46.908;15.216;2022-12-28T09:22:04;8.70;;;7.80;;
21142;SDS011;66437;46.908;15.216;2022-12-28T09:24:30;9.83;;;8.30;;
21142;SDS011;66437;46.908;15.216;2022-12-28T09:26:56;8.67;;;7.80;;
21142;SDS011;66437;46.908;15.216;2022-12-28T09:29:22;9.37;;;8.53;;
21142;SDS011;66437;46.908;15.216;2022-12-28T09:31:48;9.70;;;8.70;;
21142;SDS011;66437;46.908;15.216;2022-12-28T09:34:14;9.40;;;7.70;;
21142;SDS011;66437;46.908;15.216;2022-12-28T09:36:41;7.90;;;7.20;;
21142;SDS011;66437;46.908;15.216;2022-12-28T09:39:09;7.83;;;7.03;;
21142;SDS011;66437;46.908;15.216;2022-12-28T09:46:43;11.20;;;7.60;;
21142;SDS011;66437;46.908;15.216;2022-12-28T09:49:15;8.73;;;7.67;;
21142;SDS011;66437;46.908;15.216;2022-12-28T09:52:03;9.13;;;7.87;;
21142;SDS011;66437;46.908;15.216;2022-12-28T09:54:30;8.00;;;6.53;;
21142;SDS011;66437;46.908;15.216;2022-12-28T09:56:56;7.87;;;7.17;;
21142;SDS011;66437;46.908;15.216;2022-12-28T09:59:23;7.90;;;7.10;;
21142;SDS011;66437;46.908;15.216;2022-12-28T10:01:57;10.30;;;7.83;;
21142;SDS011;66437;46.908;15.216;2022-12-28T10:04:25;10.47;;;9.40;;
21142;SDS011;66437;46.908;15.216;2022-12-28T10:06:51;8.90;;;8.00;;
21142;SDS011;66437;46.908;15.216;2022-12-28T10:09:23;7.67;;;6.97;;
21142;SDS011;66437;46.908;15.216;2022-12-28T10:11:50;6.80;;;6.20;;
21142;SDS011;66437;46.908;15.216;2022-12-28T10:14:27;6.70;;;5.90;;
21142;SDS011;66437;46.908;15.216;2022-12-28T10:16:54;6.10;;;5.27;;
21142;SDS011;66437;46.908;15.216;2022-12-28T10:19:22;7.20;;;5.73;;
21142;SDS011;66437;46.908;15.216;2022-12-28T10:21:52;5.93;;;5.33;;
21142;SDS011;66437;46.908;15.216;2022-12-28T10:24:21;6.50;;;5.70;;
21142;SDS011;66437;46.908;15.216;2022-12-28T10:26:48;7.30;;;6.60;;
21142;SDS011;66437;46.908;15.216;2022-12-28T10:29:19;7.17;;;6.47;;
21142;SDS011;66437;46.908;15.216;2022-12-28T10:31:57;7.30;;;6.47;;
21142;SDS011;66437;46.908;15.216;2022-12-28T10:34:23;9.23;;;7.50;;
21142;SDS011;66437;46.908;15.216;2022-12-28T10:36:50;7.40;;;6.70;;
21142;SDS011;66437;46.908;15.216;2022-12-28T10:39:24;9.27;;;8.10;;
21142;SDS011;66437;46.908;15.216;2022-12-28T10:41:52;8.57;;;7.73;;
21142;SDS011;66437;46.908;15.216;2022-12-28T10:46:51;13.20;;;8.03;;
21142;SDS011;66437;46.908;15.216;2022-12-28T10:49:19;7.80;;;7.10;;
21142;SDS011;66437;46.908;15.216;2022-12-28T10:54:44;8.00;;;6.30;;
21142;SDS011;66437;46.908;15.216;2022-12-28T10:57:17;8.00;;;7.20;;
21142;SDS011;66437;46.908;15.216;2022-12-28T10:59:43;7.40;;;6.70;;
21142;SDS011;66437;46.908;15.216;2022-12-28T11:05:20;7.53;;;6.83;;
21142;SDS011;66437;46.908;15.216;2022-12-28T11:07:38;7.80;;;7.03;;
21142;SDS011;66437;46.908;15.216;2022-12-28T11:10:25;7.80;;;7.00;;
21142;SDS011;66437;46.908;15.216;2022-12-28T11:12:55;9.10;;;7.90;;
21142;SDS011;66437;46.908;15.216;2022-12-28T11:15:23;8.60;;;7.70;;
21142;SDS011;66437;46.908;15.216;2022-12-28T11:17:59;7.67;;;6.93;;
21142;SDS011;66437;46.908;15.216;2022-12-28T11:20:33;7.27;;;6.57;;
21142;SDS011;66437;46.908;15.216;2022-12-28T11:23:00;9.43;;;8.27;;
21142;SDS011;66437;46.908;15.216;2022-12-28T11:25:30;8.20;;;7.30;;
21142;SDS011;66437;46.908;15.216;2022-12-28T11:27:57;8.40;;;7.43;;
21142;SDS011;66437;46.908;15.216;2022-12-28T11:30:24;7.80;;;6.97;;
21142;SDS011;66437;46.908;15.216;2022-12-28T11:32:54;9.63;;;7.80;;
21142;SDS011;66437;46.908;15.216;2022-12-28T11:35:22;8.03;;;7.23;;
21142;SDS011;66437;46.908;15.216;2022-12-28T11:37:50;8.30;;;7.53;;
21142;SDS011;66437;46.908;15.216;2022-12-28T11:43:02;7.43;;;6.83;;
21142;SDS011;66437;46.908;15.216;2022-12-28T11:51:02;7.10;;;6.43;;
21142;SDS011;66437;46.908;15.216;2022-12-28T11:56:02;7.00;;;6.30;;
21142;SDS011;66437;46.908;15.216;2022-12-28T12:00:55;8.27;;;7.07;;
21142;SDS011;66437;46.908;15.216;2022-12-28T12:06:09;7.13;;;6.20;;
21142;SDS011;66437;46.908;15.216;2022-12-28T12:08:38;7.27;;;6.60;;
21142;SDS011;66437;46.908;15.216;2022-12-28T12:13:45;7.03;;;6.33;;
21142;SDS011;66437;46.908;15.216;2022-12-28T12:19:16;6.67;;;5.97;;
21142;SDS011;66437;46.908;15.216;2022-12-28T12:21:45;7.67;;;6.97;;
21142;SDS011;66437;46.908;15.216;2022-12-28T12:24:24;7.13;;;6.57;;
21142;SDS011;66437;46.908;15.216;2022-12-28T12:27:35;10.87;;;9.73;;
21142;SDS011;66437;46.908;15.216;2022-12-28T12:29:44;8.33;;;7.60;;
21142;SDS011;66437;46.908;15.216;2022-12-28T12:32:14;11.57;;;7.13;;
21142;SDS011;66437;46.908;15.216;2022-12-28T12:34:43;6.73;;;6.03;;
21142;SDS011;66437;46.908;15.216;2022-12-28T12:40:03;6.07;;;5.40;;
21142;SDS011;66437;46.908;15.216;2022-12-28T13:03:15;7.60;;;5.83;;
21142;SDS011;66437;46.908;15.216;2022-12-28T13:05:52;6.33;;;5.60;;
21142;SDS011;66437;46.908;15.216;2022-12-28T13:08:21;9.70;;;6.90;;
21142;SDS011;66437;46.908;15.216;2022-12-28T13:10:47;8.13;;;6.40;;
21142;SDS011;66437;46.908;15.216;2022-12-28T13:13:26;7.20;;;5.30;;
21142;SDS011;66437;46.908;15.216;2022-12-28T13:15:54;6.00;;;5.40;;
21142;SDS011;66437;46.908;15.216;2022-12-28T13:18:24;8.10;;;6.30;;
21142;SDS011;66437;46.908;15.216;2022-12-28T13:20:51;6.90;;;6.20;;
21142;SDS011;66437;46.908;15.216;2022-12-28T13:23:18;6.43;;;5.70;;
21142;SDS011;66437;46.908;15.216;2022-12-28T13:25:46;7.87;;;5.73;;
21142;SDS011;66437;46.908;15.216;2022-12-28T13:28:25;5.10;;;4.37;;
21142;SDS011;66437;46.908;15.216;2022-12-28T13:33:27;4.77;;;4.37;;
21142;SDS011;66437;46.908;15.216;2022-12-28T13:36:14;6.27;;;5.20;;
21142;SDS011;66437;46.908;15.216;2022-12-28T13:38:40;5.47;;;4.97;;
21142;SDS011;66437;46.908;15.216;2022-12-28T13:41:13;5.10;;;4.60;;
21142;SDS011;66437;46.908;15.216;2022-12-28T13:46:17;6.50;;;5.07;;
21142;SDS011;66437;46.908;15.216;2022-12-28T13:48:44;5.13;;;4.73;;
21142;SDS011;66437;46.908;15.216;2022-12-28T13:51:13;5.77;;;5.13;;
21142;SDS011;66437;46.908;15.216;2022-12-28T13:53:41;6.23;;;5.73;;
21142;SDS011;66437;46.908;15.216;2022-12-28T13:56:08;5.90;;;4.27;;
21142;SDS011;66437;46.908;15.216;2022-12-28T13:58:37;5.80;;;4.80;;
21142;SDS011;66437;46.908;15.216;2022-12-28T14:01:08;5.30;;;4.30;;
21142;SDS011;66437;46.908;15.216;2022-12-28T14:03:37;4.80;;;4.30;;
21142;SDS011;66437;46.908;15.216;2022-12-28T14:06:04;5.10;;;4.60;;
21142;SDS011;66437;46.908;15.216;2022-12-28T14:08:35;4.60;;;4.03;;
21142;SDS011;66437;46.908;15.216;2022-12-28T14:11:02;4.30;;;3.90;;
21142;SDS011;66437;46.908;15.216;2022-12-28T14:13:30;4.43;;;4.03;;
21142;SDS011;66437;46.908;15.216;2022-12-28T14:15:56;5.07;;;4.43;;
21142;SDS011;66437;46.908;15.216;2022-12-28T14:18:23;4.17;;;3.80;;
21142;SDS011;66437;46.908;15.216;2022-12-28T14:20:51;6.63;;;5.03;;
21142;SDS011;66437;46.908;15.216;2022-12-28T14:23:22;5.80;;;4.73;;
21142;SDS011;66437;46.908;15.216;2022-12-28T14:25:49;4.70;;;4.07;;
21142;SDS011;66437;46.908;15.216;2022-12-28T14:30:52;5.10;;;4.70;;
21142;SDS011;66437;46.908;15.216;2022-12-28T14:33:20;8.30;;;5.37;;
21142;SDS011;66437;46.908;15.216;2022-12-28T14:35:50;7.70;;;6.53;;
21142;SDS011;66437;46.908;15.216;2022-12-28T14:38:21;5.40;;;4.90;;
21142;SDS011;66437;46.908;15.216;2022-12-28T14:40:55;5.07;;;4.57;;
21142;SDS011;66437;46.908;15.216;2022-12-28T14:43:23;5.20;;;4.70;;
21142;SDS011;66437;46.908;15.216;2022-12-28T14:45:50;6.40;;;5.70;;
21142;SDS011;66437;46.908;15.216;2022-12-28T14:48:30;6.53;;;5.70;;
21142;SDS011;66437;46.908;15.216;2022-12-28T14:51:02;5.03;;;4.63;;
21142;SDS011;66437;46.908;15.216;2022-12-28T14:53:29;6.10;;;5.60;;
21142;SDS011;66437;46.908;15.216;2022-12-28T14:58:44;6.17;;;5.60;;
21142;SDS011;66437;46.908;15.216;2022-12-28T15:01:08;6.67;;;5.47;;
21142;SDS011;66437;46.908;15.216;2022-12-28T15:03:56;6.40;;;5.80;;
21142;SDS011;66437;46.908;15.216;2022-12-28T15:06:29;7.40;;;5.80;;
21142;SDS011;66437;46.908;15.216;2022-12-28T15:08:56;6.83;;;5.77;;
21142;SDS011;66437;46.908;15.216;2022-12-28T15:11:24;6.10;;;5.13;;
21142;SDS011;66437;46.908;15.216;2022-12-28T15:13:51;6.73;;;5.90;;
21142;SDS011;66437;46.908;15.216;2022-12-28T15:16:18;8.80;;;6.60;;
21142;SDS011;66437;46.908;15.216;2022-12-28T15:18:44;7.60;;;6.83;;
21142;SDS011;66437;46.908;15.216;2022-12-28T15:21:12;10.07;;;6.00;;
21142;SDS011;66437;46.908;15.216;2022-12-28T15:23:38;9.53;;;6.77;;
21142;SDS011;66437;46.908;15.216;2022-12-28T15:26:08;9.20;;;5.80;;
21142;SDS011;66437;46.908;15.216;2022-12-28T15:28:34;5.97;;;5.37;;
21142;SDS011;66437;46.908;15.216;2022-12-28T15:31:07;7.60;;;5.93;;
21142;SDS011;66437;46.908;15.216;2022-12-28T15:33:33;7.60;;;5.77;;
21142;SDS011;66437;46.908;15.216;2022-12-28T15:36:01;7.30;;;6.20;;
21142;SDS011;66437;46.908;15.216;2022-12-28T15:38:27;10.07;;;6.77;;
21142;SDS011;66437;46.908;15.216;2022-12-28T15:40:54;7.77;;;6.93;;
21142;SDS011;66437;46.908;15.216;2022-12-28T15:43:20;8.03;;;7.07;;
21142;SDS011;66437;46.908;15.216;2022-12-28T15:45:53;8.83;;;6.00;;
21142;SDS011;66437;46.908;15.216;2022-12-28T15:48:19;6.03;;;5.37;;
21142;SDS011;66437;46.908;15.216;2022-12-28T15:50:45;6.70;;;5.03;;
21142;SDS011;66437;46.908;15.216;2022-12-28T15:53:11;6.90;;;5.23;;
21142;SDS011;66437;46.908;15.216;2022-12-28T15:55:38;7.23;;;4.80;;
21142;SDS011;66437;46.908;15.216;2022-12-28T15:58:04;5.33;;;4.83;;
21142;SDS011;66437;46.908;15.216;2022-12-28T16:00:30;5.03;;;4.20;;
21142;SDS011;66437;46.908;15.216;2022-12-28T16:02:56;4.13;;;3.77;;
21142;SDS011;66437;46.908;15.216;2022-12-28T16:05:22;5.63;;;4.90;;
21142;SDS011;66437;46.908;15.216;2022-12-28T16:07:48;4.73;;;3.40;;
21142;SDS011;66437;46.908;15.216;2022-12-28T16:10:15;4.67;;;4.27;;
21142;SDS011;66437;46.908;15.216;2022-12-28T16:12:41;4.03;;;3.30;;
21142;SDS011;66437;46.908;15.216;2022-12-28T16:15:07;4.77;;;3.30;;
21142;SDS011;66437;46.908;15.216;2022-12-28T16:17:34;5.17;;;3.80;;
21142;SDS011;66437;46.908;15.216;2022-12-28T16:20:00;4.03;;;2.93;;
21142;SDS011;66437;46.908;15.216;2022-12-28T16:22:26;5.03;;;3.40;;
21142;SDS011;66437;46.908;15.216;2022-12-28T16:24:52;3.50;;;3.20;;
21142;SDS011;66437;46.908;15.216;2022-12-28T16:27:18;3.20;;;2.77;;
21142;SDS011;66437;46.908;15.216;2022-12-28T16:29:45;3.77;;;3.17;;
21142;SDS011;66437;46.908;15.216;2022-12-28T16:32:13;3.53;;;3.23;;
21142;SDS011;66437;46.908;15.216;2022-12-28T16:34:40;4.57;;;3.70;;
21142;SDS011;66437;46.908;15.216;2022-12-28T16:37:06;3.73;;;3.07;;